createdAt,value
2018-04-10T00:01:32.023Z,97.60
2018-04-10T00:04:07.803Z,97.60
2018-04-10T00:06:42.525Z,97.70
2018-04-10T00:09:17.758Z,98.00
2018-04-10T00:11:53.919Z,97.90
2018-04-10T00:14:29.133Z,98.00
2018-04-10T00:17:03.474Z,97.30
2018-04-10T00:19:38.389Z,97.10
2018-04-10T00:22:13.533Z,97.60
2018-04-10T00:24:47.845Z,97.60
2018-04-10T00:27:22.888Z,98.10
2018-04-10T00:29:57.219Z,97.90
2018-04-10T00:32:31.126Z,98.70
2018-04-10T00:35:05.010Z,98.40
2018-04-10T00:37:40.766Z,98.10
2018-04-10T00:40:15.590Z,98.30
2018-04-10T00:42:51.453Z,98.30
2018-04-10T00:45:25.451Z,98.10
2018-04-10T00:48:00.696Z,97.70
2018-04-10T00:50:34.809Z,97.70
2018-04-10T00:53:21.412Z,99.60
2018-04-10T00:55:55.734Z,99.60
2018-04-10T00:58:30.654Z,99.80
2018-04-10T01:01:05.590Z,99.80
2018-04-10T01:03:40.900Z,99.90
2018-04-10T01:06:15.447Z,99.90
2018-04-10T01:08:50.176Z,98.90
2018-04-10T01:11:26.438Z,98.50
2018-04-10T01:14:01.879Z,99.10
2018-04-10T01:16:38.054Z,99.50
2018-04-10T01:19:12.171Z,99.50
2018-04-10T01:21:47.721Z,98.50
2018-04-10T01:24:22.598Z,98.20
2018-04-10T01:26:57.142Z,98.20
2018-04-10T01:29:32.284Z,98.20
2018-04-10T01:32:07.170Z,98.20
2018-04-10T01:34:43.074Z,99.40
2018-04-10T01:37:18.001Z,99.90
2018-04-10T01:39:53.243Z,99.90
2018-04-10T01:42:27.914Z,99.40
2018-04-10T01:45:02.496Z,99.20
2018-04-10T01:47:37.212Z,99.20
2018-04-10T01:50:13.164Z,99.90
2018-04-10T01:52:47.370Z,99.90
2018-04-10T01:55:22.409Z,99.90
2018-04-10T01:57:57.351Z,99.90
2018-04-10T02:00:32.064Z,99.90
2018-04-10T02:03:06.285Z,99.90
2018-04-10T02:05:40.402Z,99.90
2018-04-10T02:08:14.148Z,99.90
2018-04-10T02:10:49.452Z,99.90
2018-04-10T02:13:23.368Z,99.80
2018-04-10T02:15:58.076Z,99.90
2018-04-10T02:18:33.001Z,99.60
2018-04-10T02:21:09.479Z,99.70
2018-04-10T02:23:44.198Z,99.50
2018-04-10T02:26:19.005Z,99.50
2018-04-10T02:28:53.554Z,99.90
2018-04-10T02:31:27.765Z,99.90
2018-04-10T02:34:03.188Z,99.90
2018-04-10T02:36:39.463Z,99.90
2018-04-10T02:39:14.296Z,99.90
2018-04-10T02:41:50.259Z,99.90
2018-04-10T02:44:24.155Z,99.90
2018-04-10T02:46:57.955Z,99.60
2018-04-10T02:49:32.581Z,99.90
2018-04-10T02:52:06.910Z,99.90
2018-04-10T02:54:42.245Z,99.90
2018-04-10T02:57:18.200Z,99.90
2018-04-10T02:59:53.510Z,99.90
2018-04-10T03:02:29.596Z,99.90
2018-04-10T03:05:04.018Z,99.90
2018-04-10T03:07:39.179Z,99.90
2018-04-10T03:10:13.159Z,99.90
2018-04-10T03:12:47.071Z,99.90
2018-04-10T03:15:22.012Z,99.90
2018-04-10T03:17:56.819Z,99.90
2018-04-10T03:20:30.457Z,99.90
2018-04-10T03:23:05.747Z,99.20
2018-04-10T03:25:40.385Z,99.20
2018-04-10T03:28:15.527Z,99.40
2018-04-10T03:30:50.554Z,99.50
2018-04-10T03:33:24.679Z,99.50
2018-04-10T03:35:59.400Z,99.50
2018-04-10T03:38:33.203Z,99.20
2018-04-10T03:41:08.142Z,98.90
2018-04-10T03:43:41.931Z,98.90
2018-04-10T03:46:16.296Z,99.20
2018-04-10T03:48:50.881Z,99.20
2018-04-10T03:51:26.656Z,99.30
2018-04-10T03:54:01.655Z,99.30
2018-04-10T03:56:35.669Z,99.30
2018-04-10T03:59:10.301Z,99.80
2018-04-10T04:01:45.025Z,99.80
2018-04-10T04:04:20.768Z,99.30
2018-04-10T04:06:55.909Z,99.60
2018-04-10T04:09:29.815Z,99.60
2018-04-10T04:12:03.724Z,99.90
2018-04-10T04:14:38.034Z,99.90
2018-04-10T04:17:24.026Z,99.90
2018-04-10T04:20:11.467Z,99.90
2018-04-10T04:22:47.370Z,99.90
2018-04-10T04:25:22.024Z,99.90
2018-04-10T04:27:56.357Z,99.90
2018-04-10T04:30:30.970Z,99.90
2018-04-10T04:33:06.617Z,99.90
2018-04-10T04:35:40.630Z,99.90
2018-04-10T04:38:16.430Z,99.90
2018-04-10T04:40:49.978Z,99.90
2018-04-10T04:43:25.908Z,99.90
2018-04-10T04:46:00.355Z,99.90
2018-04-10T04:48:35.384Z,99.90
2018-04-10T04:51:10.098Z,99.90
2018-04-10T05:06:51.573Z,99.90
2018-04-10T05:09:26.967Z,99.90
2018-04-10T05:12:00.830Z,99.90
2018-04-10T05:14:35.450Z,99.90
2018-04-10T05:17:09.386Z,99.90
2018-04-10T05:19:43.886Z,99.90
2018-04-10T05:22:17.589Z,99.90
2018-04-10T05:24:52.533Z,99.90
2018-04-10T05:27:27.762Z,99.90
2018-04-10T05:30:01.461Z,99.90
2018-04-10T05:32:35.078Z,99.90
2018-04-10T05:35:08.855Z,99.90
2018-04-10T05:37:43.390Z,99.90
2018-04-10T05:40:18.905Z,99.90
2018-04-10T05:42:53.456Z,99.90
2018-04-10T05:45:28.403Z,99.90
2018-04-10T05:48:01.898Z,99.90
2018-04-10T05:50:36.298Z,99.90
2018-04-10T05:53:10.885Z,99.90
2018-04-10T05:55:44.728Z,99.90
2018-04-10T05:58:19.941Z,99.90
2018-04-10T06:00:53.666Z,99.90
2018-04-10T06:03:27.864Z,99.90
2018-04-10T06:06:01.507Z,99.90
2018-04-10T06:08:35.595Z,99.90
2018-04-10T06:11:11.509Z,99.90
2018-04-10T06:13:45.520Z,99.90
2018-04-10T06:16:20.175Z,99.90
2018-04-10T06:18:53.967Z,99.90
2018-04-10T06:21:28.731Z,99.90
2018-04-10T06:24:02.699Z,99.90
2018-04-10T06:26:37.707Z,99.90
2018-04-10T06:29:12.251Z,99.90
2018-04-10T06:31:47.555Z,99.90
2018-04-10T06:34:21.374Z,99.90
2018-04-10T06:36:55.535Z,99.90
2018-04-10T06:39:30.060Z,99.90
2018-04-10T06:42:03.939Z,99.90
2018-04-10T06:44:38.457Z,99.40
2018-04-10T06:47:13.083Z,99.20
2018-04-10T06:49:46.823Z,99.10
2018-04-10T06:52:20.497Z,98.90
2018-04-10T06:54:54.909Z,98.90
2018-04-10T06:57:29.735Z,98.70
2018-04-10T07:00:04.278Z,98.70
2018-04-10T07:02:39.327Z,98.00
2018-04-10T07:05:13.219Z,98.00
2018-04-10T07:07:48.025Z,97.40
2018-04-10T07:10:22.570Z,97.20
2018-04-10T07:12:57.197Z,97.00
2018-04-10T07:15:31.995Z,96.80
2018-04-10T07:18:07.183Z,96.80
2018-04-10T07:20:40.950Z,96.70
2018-04-10T07:23:15.750Z,96.20
2018-04-10T07:25:50.116Z,96.20
2018-04-10T07:28:23.604Z,96.20
2018-04-10T07:30:59.119Z,95.90
2018-04-10T07:33:32.995Z,95.90
2018-04-10T07:36:06.837Z,95.80
2018-04-10T07:38:41.354Z,95.40
2018-04-10T07:41:15.908Z,95.40
2018-04-10T07:43:50.587Z,95.40
2018-04-10T07:46:24.409Z,95.50
2018-04-10T07:48:58.678Z,94.90
2018-04-10T07:51:33.246Z,94.90
2018-04-10T07:54:08.498Z,94.30
2018-04-10T07:56:42.995Z,94.80
2018-04-10T07:59:16.690Z,94.80
2018-04-10T08:01:51.357Z,93.60
2018-04-10T08:04:25.317Z,93.60
2018-04-10T08:06:59.471Z,93.70
2018-04-10T08:09:34.318Z,93.70
2018-04-10T08:12:09.206Z,92.40
2018-04-10T08:14:43.036Z,92.40
2018-04-10T08:17:17.565Z,93.50
2018-04-10T08:19:52.845Z,92.20
2018-04-10T08:22:27.314Z,92.20
2018-04-10T08:25:02.243Z,91.50
2018-04-10T08:27:36.040Z,91.50
2018-04-10T08:30:09.926Z,92.10
2018-04-10T08:32:44.667Z,92.20
2018-04-10T08:35:18.439Z,92.20
2018-04-10T08:37:52.127Z,93.00
2018-04-10T08:40:26.671Z,91.20
2018-04-10T08:43:01.447Z,87.40
2018-04-10T08:45:35.910Z,87.50
2018-04-10T08:48:10.345Z,87.90
2018-04-10T08:50:44.377Z,88.80
2018-04-10T08:53:18.197Z,88.70
2018-04-10T08:55:52.920Z,88.30
2018-04-10T08:58:27.001Z,88.30
2018-04-10T09:01:01.115Z,87.50
2018-04-10T09:03:34.822Z,85.50
2018-04-10T09:06:09.315Z,88.30
2018-04-10T09:08:43.868Z,86.50
2018-04-10T09:11:17.676Z,86.50
2018-04-10T09:13:51.398Z,84.90
2018-04-10T09:16:25.402Z,84.80
2018-04-10T09:19:00.333Z,84.30
2018-04-10T09:21:34.122Z,84.30
2018-04-10T09:24:08.281Z,86.30
2018-04-10T09:26:42.053Z,83.30
2018-04-10T09:29:15.992Z,82.20
2018-04-10T09:31:50.795Z,81.60
2018-04-10T09:34:24.911Z,81.50
2018-04-10T09:36:58.584Z,81.30
2018-04-10T09:39:32.296Z,80.30
2018-04-10T09:42:06.913Z,79.40
2018-04-10T09:44:41.020Z,79.30
2018-04-10T09:47:14.813Z,79.60
2018-04-10T09:49:50.677Z,79.30
2018-04-10T09:52:24.403Z,79.30
2018-04-10T09:54:59.326Z,80.00
2018-04-10T09:57:33.826Z,76.30
2018-04-10T10:00:09.178Z,76.40
2018-04-10T10:02:43.714Z,75.20
2018-04-10T10:05:18.452Z,75.70
2018-04-10T10:07:52.285Z,75.50
2018-04-10T10:10:27.372Z,76.00
2018-04-10T10:13:01.460Z,75.80
2018-04-10T10:15:36.311Z,75.20
2018-04-10T10:18:09.996Z,75.30
2018-04-10T10:20:44.193Z,75.70
2018-04-10T10:23:18.957Z,76.50
2018-04-10T10:25:53.781Z,74.10
2018-04-10T10:28:28.412Z,73.30
2018-04-10T10:31:02.935Z,75.10
2018-04-10T10:33:37.353Z,75.10
2018-04-10T10:36:11.259Z,75.20
2018-04-10T10:38:46.485Z,73.00
2018-04-10T10:41:21.235Z,72.40
2018-04-10T10:43:55.121Z,72.20
2018-04-10T10:46:30.249Z,68.20
2018-04-10T10:49:05.089Z,70.70
2018-04-10T10:51:40.119Z,66.90
2018-04-10T10:54:13.749Z,66.70
2018-04-10T10:56:48.238Z,71.60
2018-04-10T10:59:22.755Z,71.90
2018-04-10T11:01:57.452Z,72.00
2018-04-10T11:04:31.799Z,64.10
2018-04-10T11:07:06.724Z,64.50
2018-04-10T11:09:41.721Z,64.00
2018-04-10T11:12:16.203Z,66.80
2018-04-10T11:14:50.006Z,66.80
2018-04-10T11:17:24.754Z,69.70
2018-04-10T11:19:59.797Z,72.30
2018-04-10T11:22:33.546Z,72.20
2018-04-10T11:25:08.272Z,73.70
2018-04-10T11:27:42.979Z,71.80
2018-04-10T11:30:18.139Z,72.10
2018-04-10T11:32:53.093Z,72.10
2018-04-10T11:35:28.289Z,72.20
2018-04-10T11:38:02.017Z,72.30
2018-04-10T11:40:38.274Z,67.70
2018-04-10T11:43:11.880Z,67.60
2018-04-10T11:45:46.811Z,67.40
2018-04-10T11:48:21.433Z,67.20
2018-04-10T11:50:55.221Z,66.50
2018-04-10T11:53:29.575Z,69.20
2018-04-10T11:56:03.384Z,63.80
2018-04-10T11:58:38.686Z,62.00
2018-04-10T12:01:13.203Z,63.10
2018-04-10T12:03:48.422Z,62.50
2018-04-10T12:06:23.178Z,65.90
2018-04-10T12:08:58.188Z,62.30
2018-04-10T12:11:31.925Z,62.20
2018-04-10T12:14:05.700Z,60.70
2018-04-10T12:16:40.323Z,59.30
2018-04-10T12:19:14.771Z,61.80
2018-04-10T12:21:49.667Z,61.90
2018-04-10T12:24:23.675Z,61.90
2018-04-10T12:26:59.733Z,57.30
2018-04-10T12:29:33.568Z,57.30
2018-04-10T12:32:08.381Z,56.60
2018-04-10T12:34:42.085Z,56.40
2018-04-10T12:37:15.888Z,59.90
2018-04-10T12:39:49.901Z,56.80
2018-04-10T12:42:23.509Z,57.80
2018-04-10T12:44:57.523Z,53.70
2018-04-10T12:47:31.488Z,53.30
2018-04-10T12:50:05.642Z,52.80
2018-04-10T12:52:40.477Z,52.60
2018-04-10T12:55:14.519Z,52.60
2018-04-10T12:57:49.215Z,50.60
2018-04-10T13:00:27.734Z,49.30
2018-04-10T13:03:01.459Z,49.20
2018-04-10T13:05:37.048Z,50.50
2018-04-10T13:08:11.799Z,48.10
2018-04-10T13:10:45.764Z,48.00
2018-04-10T13:13:21.024Z,48.20
2018-04-10T13:15:55.667Z,49.10
2018-04-10T13:18:30.465Z,55.40
2018-04-10T13:21:05.303Z,52.30
2018-04-10T13:23:39.991Z,51.40
2018-04-10T13:26:13.985Z,51.30
2018-04-10T13:28:47.939Z,48.90
2018-04-10T13:31:22.470Z,48.20
2018-04-10T13:33:56.928Z,46.10
2018-04-10T13:36:31.660Z,45.70
2018-04-10T13:39:05.726Z,45.70
2018-04-10T13:41:40.247Z,44.70
2018-04-10T13:44:14.871Z,45.80
2018-04-10T13:46:48.611Z,45.60
2018-04-10T13:49:22.292Z,45.00
2018-04-10T13:51:57.169Z,46.50
2018-04-10T13:54:32.356Z,47.80
2018-04-10T13:57:06.996Z,51.30
2018-04-10T13:59:41.536Z,52.60
2018-04-10T14:02:15.725Z,52.60
2018-04-10T14:04:51.159Z,53.30
2018-04-10T14:07:26.267Z,53.50
2018-04-10T14:10:00.126Z,53.50
2018-04-10T14:12:34.079Z,54.60
2018-04-10T14:15:08.661Z,58.50
2018-04-10T14:17:43.393Z,59.90
2018-04-10T14:20:17.178Z,59.90
2018-04-10T14:22:50.816Z,63.40
2018-04-10T14:25:24.894Z,61.60
2018-04-10T14:27:58.571Z,62.00
2018-04-10T14:30:32.693Z,63.50
2018-04-10T14:33:06.391Z,64.30
2018-04-10T14:35:40.446Z,65.50
2018-04-10T14:38:14.617Z,67.20
2018-04-10T14:40:48.304Z,67.10
2018-04-10T14:43:22.873Z,66.90
2018-04-10T14:45:56.442Z,66.70
2018-04-10T14:48:31.755Z,70.30
2018-04-10T14:51:05.881Z,70.20
2018-04-10T14:53:40.994Z,70.80
2018-04-10T14:56:14.730Z,70.80
2018-04-10T14:58:49.132Z,72.50
2018-04-10T15:01:23.986Z,72.40
2018-04-10T15:03:57.757Z,72.40
2018-04-10T15:06:31.438Z,74.00
2018-04-10T15:09:05.703Z,73.90
2018-04-10T15:11:40.670Z,74.20
2018-04-10T15:14:15.036Z,73.90
2018-04-10T15:16:49.943Z,75.40
2018-04-10T15:19:24.373Z,75.50
2018-04-10T15:21:59.109Z,75.30
2018-04-10T15:24:33.589Z,75.60
2018-04-10T15:27:08.983Z,75.40
2018-04-10T15:29:43.372Z,75.40
2018-04-10T15:32:18.166Z,77.30
2018-04-10T15:34:52.005Z,77.40
2018-04-10T15:37:26.082Z,77.80
2018-04-10T15:40:00.877Z,77.20
2018-04-10T15:42:34.751Z,77.20
2018-04-10T15:45:10.943Z,77.60
2018-04-10T15:47:45.763Z,77.50
2018-04-10T15:50:19.878Z,80.40
2018-04-10T15:52:53.865Z,85.90
2018-04-10T15:55:29.067Z,88.60
2018-04-10T15:58:03.133Z,88.50
2018-04-10T16:00:37.974Z,92.90
2018-04-10T16:03:12.811Z,95.00
2018-04-10T16:05:47.502Z,96.20
2018-04-10T16:08:22.027Z,98.10
2018-04-10T16:10:55.993Z,98.10
2018-04-10T16:13:31.667Z,99.90
2018-04-10T16:16:06.423Z,99.90
2018-04-10T16:18:41.139Z,99.90
2018-04-10T16:21:15.341Z,99.90
2018-04-10T16:23:49.331Z,99.90
2018-04-10T16:26:24.011Z,99.90
2018-04-10T16:28:59.386Z,99.90
2018-04-10T16:31:34.849Z,99.90
2018-04-10T16:34:09.802Z,99.90
2018-04-10T16:36:44.389Z,99.90
2018-04-10T16:39:19.226Z,99.90
2018-04-10T16:41:54.898Z,99.90
2018-04-10T16:44:29.950Z,99.90
2018-04-10T16:47:03.845Z,99.90
2018-04-10T16:49:37.769Z,99.90
2018-04-10T16:52:12.591Z,99.90
2018-04-10T16:54:47.501Z,99.90
2018-04-10T16:57:21.274Z,99.90
2018-04-10T16:59:55.368Z,99.90
2018-04-10T17:02:29.326Z,99.90
2018-04-10T17:05:04.178Z,99.90
2018-04-10T17:07:38.043Z,99.90
2018-04-10T17:10:12.863Z,99.90
2018-04-10T17:12:46.914Z,99.90
2018-04-10T17:15:22.166Z,99.90
2018-04-10T17:17:56.866Z,99.90
2018-04-10T17:20:30.533Z,99.90
2018-04-10T17:23:04.092Z,99.90
2018-04-10T17:25:37.902Z,99.90
2018-04-10T17:28:11.757Z,99.90
2018-04-10T17:30:46.224Z,99.90
2018-04-10T17:33:20.570Z,99.90
2018-04-10T17:35:54.502Z,99.90
2018-04-10T17:38:29.988Z,99.90
2018-04-10T17:41:04.490Z,99.90
2018-04-10T17:43:38.709Z,99.90
2018-04-10T17:46:14.146Z,99.90
2018-04-10T17:48:48.582Z,99.90
2018-04-10T17:51:22.597Z,99.90
2018-04-10T17:53:57.524Z,99.90
2018-04-10T17:56:31.631Z,99.90
2018-04-10T17:59:07.063Z,99.90
2018-04-10T18:01:41.895Z,99.90
2018-04-10T18:04:16.235Z,99.90
2018-04-10T18:06:51.671Z,99.90
2018-04-10T18:09:26.376Z,99.90
2018-04-10T18:12:01.510Z,99.90
2018-04-10T18:14:36.238Z,99.90
2018-04-10T18:17:09.926Z,99.90
2018-04-10T18:19:44.869Z,99.90
2018-04-10T18:22:19.387Z,99.90
2018-04-10T18:24:53.838Z,99.90
2018-04-10T18:27:28.133Z,99.90
2018-04-10T18:30:02.652Z,99.90
2018-04-10T18:32:36.339Z,99.90
2018-04-10T18:35:10.868Z,99.90
2018-04-10T18:37:44.982Z,99.90
2018-04-10T18:40:18.891Z,99.90
2018-04-10T18:42:53.350Z,99.90
2018-04-10T18:45:27.895Z,99.90
2018-04-10T18:48:01.717Z,99.90
2018-04-10T18:50:36.531Z,99.90
2018-04-10T18:53:10.767Z,99.90
2018-04-10T18:55:45.426Z,99.90
2018-04-10T18:58:19.594Z,99.90
2018-04-10T19:00:54.384Z,99.90
2018-04-10T19:03:28.454Z,99.90
2018-04-10T19:06:03.193Z,99.90
2018-04-10T19:08:37.611Z,99.90
2018-04-10T19:11:12.739Z,99.90
2018-04-10T19:13:46.864Z,99.90
2018-04-10T19:16:21.055Z,99.90
2018-04-10T19:18:55.054Z,99.90
2018-04-10T19:21:29.193Z,99.90
2018-04-10T19:24:03.725Z,99.90
2018-04-10T19:26:38.124Z,99.90
2018-04-10T19:29:12.625Z,99.90
2018-04-10T19:31:47.268Z,99.90
2018-04-10T19:34:21.876Z,99.90
2018-04-10T19:36:55.548Z,99.90
2018-04-10T19:39:30.134Z,99.90
2018-04-10T19:42:05.776Z,99.90
2018-04-10T19:44:42.637Z,99.90
2018-04-10T19:47:18.150Z,99.90
2018-04-10T19:49:52.097Z,99.90
2018-04-10T19:52:27.451Z,99.90
2018-04-10T19:55:02.578Z,99.90
2018-04-10T19:57:38.633Z,99.90
2018-04-10T20:00:12.968Z,99.90
2018-04-10T20:02:51.184Z,99.90
2018-04-10T20:05:25.480Z,99.90
2018-04-10T20:08:00.700Z,99.90
2018-04-10T20:10:34.882Z,99.90
2018-04-10T20:13:10.865Z,99.90
2018-04-10T20:15:45.606Z,99.90
2018-04-10T20:18:19.517Z,99.90
2018-04-10T20:20:53.768Z,99.90
2018-04-10T20:23:30.310Z,99.90
2018-04-10T20:26:08.051Z,99.90
2018-04-10T20:28:41.746Z,99.90
2018-04-10T20:31:15.996Z,99.90
2018-04-10T20:33:49.917Z,99.90
2018-04-10T20:36:23.907Z,99.90
2018-04-10T20:38:58.817Z,99.90
2018-04-10T20:41:32.560Z,99.90
2018-04-10T20:44:06.973Z,99.90
2018-04-10T20:46:41.184Z,99.90
2018-04-10T20:49:15.920Z,99.90
2018-04-10T20:51:50.848Z,99.90
2018-04-10T20:54:25.842Z,99.90
2018-04-10T20:57:00.415Z,99.90
2018-04-10T20:59:34.203Z,99.90
2018-04-10T21:02:09.964Z,99.90
2018-04-10T21:04:44.463Z,99.90
2018-04-10T21:07:18.443Z,99.90
2018-04-10T21:09:53.435Z,99.90
2018-04-10T21:12:28.473Z,99.90
2018-04-10T21:15:03.067Z,99.90
2018-04-10T21:17:39.160Z,99.90
2018-04-10T21:20:13.567Z,99.90
2018-04-10T21:22:48.802Z,99.90
2018-04-10T21:25:24.349Z,99.90
2018-04-10T21:27:58.457Z,99.90
2018-04-10T21:30:32.213Z,99.90
2018-04-10T21:33:07.000Z,99.90
2018-04-10T21:35:41.379Z,99.90
2018-04-10T21:38:16.818Z,99.90
2018-04-10T21:40:51.669Z,99.90
2018-04-10T21:43:30.847Z,99.90
2018-04-10T21:46:04.692Z,99.90
2018-04-10T21:48:38.832Z,99.90
2018-04-10T21:51:12.832Z,99.90
2018-04-10T21:53:48.072Z,99.90
2018-04-10T21:56:21.684Z,99.90
2018-04-10T21:58:55.982Z,99.90
2018-04-10T22:01:30.392Z,99.90
2018-04-10T22:04:04.119Z,99.90
2018-04-10T22:06:38.506Z,99.90
2018-04-10T22:09:12.417Z,99.90
2018-04-10T22:11:46.231Z,99.90
2018-04-10T22:14:21.069Z,99.90
2018-04-10T22:16:56.032Z,99.90
2018-04-10T22:19:30.528Z,99.90
2018-04-10T22:22:04.215Z,99.90
2018-04-10T22:24:38.350Z,99.90
2018-04-10T22:27:13.732Z,99.90
2018-04-10T22:29:47.891Z,99.90
2018-04-10T22:32:21.779Z,99.90
2018-04-10T22:34:56.156Z,99.90
2018-04-10T22:37:30.316Z,99.90
2018-04-10T22:40:05.142Z,99.90
2018-04-10T22:42:39.951Z,99.90
2018-04-10T22:45:14.051Z,99.90
2018-04-10T22:47:48.972Z,99.90
2018-04-10T22:50:22.704Z,99.90
2018-04-10T22:52:57.631Z,99.90
2018-04-10T22:55:31.957Z,99.90
2018-04-10T22:58:05.834Z,99.90
2018-04-10T23:00:42.636Z,99.90
2018-04-10T23:03:18.399Z,99.90
2018-04-10T23:05:52.389Z,99.90
2018-04-10T23:08:27.431Z,99.90
2018-04-10T23:11:01.601Z,99.90
2018-04-10T23:13:35.537Z,99.90
2018-04-10T23:16:11.535Z,99.90
2018-04-10T23:18:45.534Z,99.90
2018-04-10T23:21:21.109Z,99.90
2018-04-10T23:23:56.171Z,99.90
2018-04-10T23:26:30.604Z,99.90
2018-04-10T23:29:05.348Z,99.90
2018-04-10T23:31:40.417Z,99.90
2018-04-10T23:34:14.414Z,99.90
2018-04-10T23:36:49.196Z,99.90
2018-04-10T23:39:23.261Z,99.90
2018-04-10T23:41:57.581Z,99.90
2018-04-10T23:44:32.214Z,99.90
2018-04-10T23:47:08.150Z,99.90
2018-04-10T23:49:42.160Z,99.90
2018-04-10T23:52:16.873Z,99.90
2018-04-10T23:54:51.859Z,99.90
2018-04-10T23:57:25.889Z,99.90
